Airfield :
LOGIN :

Register | Disclaimer

   EN    FR    IT 

 










Legend :    VFR   Marginal VFR   IFR   Intensive IFR   Very Intensive IFR
Visi :
Ceiling :
>= 8 km
>= 3000ft
5 to 8 km
1000 to 3000 ft
1500m to 5 km
500 to 1000 ft
800 to 1500m
200 to 500 ft
< 800m
< 200 ft
Symbols :   Thunderstorms  Fog  Heavy snow  Heavy precipitations  Wind > 20 kt
SIGMETs :     Misc.  Thunderstorms  Icing  Turbulence  Mountain Waves  Volcanic Ashes







- Airport Elevation : 287 ft
- Download approach charts


LFRL - Lanveoc Poulmic

CURRENT METAR :
  • 221030Z AUTO 27014KT 5000 -RA BR FEW013/// SCT026/// BKN033/// ///TCU 07/04 Q1009 TEMPO SHRA

EXPIRED METARs :
  • 221000Z AUTO 28008KT 9999 FEW011/// BKN039/// OVC084/// ///TCU 07/03 Q1009 TEMPO 3000 SHRA
  • 220930Z AUTO 29007KT 9999 SCT030 BKN038 BKN056 07/03 Q1009 TEMPO 3000 SHRA FEW020TCU BKN030
  • 220900Z AUTO 30008KT 9999 FEW032 BKN190 BKN240 07/03 Q1009 TEMPO 3000 SHRA FEW020TCU BKN030
  • 220830Z AUTO 30007KT 9999 FEW034 BKN090 BKN110 06/03 Q1010 TEMPO 3000 SHRA FEW020TCU BKN030

TAF TAF LFRL
Valid from the 22 at 06:00 until the 23 at 06:00 UTC


220500Z 2206/2306 31010KT 9999 SCT035
TEMPO 2206/2219 31010G20KT 3000 SHRA FEW020TCU BKN030
BECMG 2217/2219 BKN020
TEMPO 2221/2306 4000 -RA OVC015
No reported NOTAMs for that airfield.



MET'MAP, your aeronautical weather chart ! - Copyright ORBIFLY December 2007 - Disclaimer

ORBIFLY MET'MAP TEAM :

Programming & Development : Alexandra Zaïnal
Concept & Development : Baudouin d'Aumeries
Co-Development & Prog : Marc-Olivier Méhu
Technical & hardware support : Manuel Goepfert

Contact : metmap@orbifly.com




SOURCES & CREDITS :

   NOAA